Airfield :
LOGIN :

Register | Disclaimer

   EN    FR    IT 

 










Legend :    VFR   Marginal VFR   IFR   Intensive IFR   Very Intensive IFR
Visi :
Ceiling :
>= 8 km
>= 3000ft
5 to 8 km
1000 to 3000 ft
1500m to 5 km
500 to 1000 ft
800 to 1500m
200 to 500 ft
< 800m
< 200 ft
Symbols :   Thunderstorms  Fog  Heavy snow  Heavy precipitations  Wind > 20 kt
SIGMETs :     Misc.  Thunderstorms  Icing  Turbulence  Mountain Waves  Volcanic Ashes







- Airport Elevation : 495 ft
- IATA code : BUD


LHBP - Budapest Ferihegy

CURRENT METAR :
  • 180630Z VRB01KT 2500 BR NSC M03/M03 Q1026 NOSIG

EXPIRED METARs :
  • 180600Z 00000KT 3000 FZMIFG BR NSC M04/M04 Q1026 TEMPO 2000 FZBCFG BR
  • 180530Z VRB03KT 3000 BR NSC M04/M04 Q1025 BECMG 2000 BR
  • 180500Z VRB03KT 3000 BR NSC M04/M04 Q1025 BECMG 2000 BR
  • 180430Z VRB03KT 3500 BR NSC M04/M04 Q1025 BECMG FM0500 2000 BR
  • 180400Z VRB03KT 3500 BR NSC M05/M05 Q1025 BECMG FM0500 2000 BR

TAF TAF LHBP
Valid from the 18 at 06:00 until the 19 at 06:00 UTC


180515Z 1806/1906 VRB02KT 3200 BR NSC
TEMPO 1806/1808 0300 FZFG VV001
BECMG 1808/1810 7000 NSW
BECMG 1810/1812 14004KT CAVOK
BECMG 1817/1819 08003KT
BECMG 1822/1901 4000 FZBCFG BR
BECMG 1904/1906 0400 FZFG BKN001
No reported NOTAMs for that airfield.



MET'MAP, your aeronautical weather chart ! - Copyright ORBIFLY December 2007 - Disclaimer

ORBIFLY MET'MAP TEAM :

Programming & Development : Alexandra Zaïnal
Concept & Development : Baudouin d'Aumeries
Co-Development & Prog : Marc-Olivier Méhu
Technical & hardware support : Manuel Goepfert

Contact : metmap@orbifly.com




SOURCES & CREDITS :

   NOAA